sensor_id;sensor_type;location;lat;lon;timestamp;pressure;altitude;pressure_sealevel;temperature;humidity
37206;BME280;23099;42.636;23.198;2023-05-14T00:00:51;92420.53;;;11.91;97.88
37206;BME280;23099;42.636;23.198;2023-05-14T00:03:18;92409.63;;;11.80;97.86
37206;BME280;23099;42.636;23.198;2023-05-14T00:05:45;92423.13;;;11.87;98.12
37206;BME280;23099;42.636;23.198;2023-05-14T00:08:11;92419.69;;;11.87;97.62
37206;BME280;23099;42.636;23.198;2023-05-14T00:10:38;92413.91;;;11.85;97.92
37206;BME280;23099;42.636;23.198;2023-05-14T00:13:04;92413.56;;;11.86;97.44
37206;BME280;23099;42.636;23.198;2023-05-14T00:15:32;92400.50;;;11.85;97.74
37206;BME280;23099;42.636;23.198;2023-05-14T00:17:59;92401.66;;;11.84;97.94
37206;BME280;23099;42.636;23.198;2023-05-14T00:20:26;92398.19;;;11.83;97.70
37206;BME280;23099;42.636;23.198;2023-05-14T00:22:52;92391.72;;;11.84;97.80
37206;BME280;23099;42.636;23.198;2023-05-14T00:25:19;92388.66;;;11.86;95.78
37206;BME280;23099;42.636;23.198;2023-05-14T00:27:46;92391.00;;;11.87;95.06
37206;BME280;23099;42.636;23.198;2023-05-14T00:30:13;92376.81;;;11.87;94.81
37206;BME280;23099;42.636;23.198;2023-05-14T00:32:41;92386.84;;;11.90;94.48
37206;BME280;23099;42.636;23.198;2023-05-14T00:35:08;92383.03;;;11.91;94.15
37206;BME280;23099;42.636;23.198;2023-05-14T00:37:35;92369.94;;;11.86;93.86
37206;BME280;23099;42.636;23.198;2023-05-14T00:40:02;92370.66;;;11.83;94.47
37206;BME280;23099;42.636;23.198;2023-05-14T00:42:31;92379.88;;;11.85;94.61
37206;BME280;23099;42.636;23.198;2023-05-14T00:44:57;92373.78;;;11.88;94.09
37206;BME280;23099;42.636;23.198;2023-05-14T00:47:24;92364.63;;;11.89;94.24
37206;BME280;23099;42.636;23.198;2023-05-14T00:49:52;92367.59;;;11.84;91.73
37206;BME280;23099;42.636;23.198;2023-05-14T00:52:19;92367.06;;;11.75;91.36
37206;BME280;23099;42.636;23.198;2023-05-14T00:54:47;92362.06;;;11.74;91.79
37206;BME280;23099;42.636;23.198;2023-05-14T00:57:14;92368.72;;;11.83;92.21
37206;BME280;23099;42.636;23.198;2023-05-14T00:59:41;92366.44;;;11.82;91.80
37206;BME280;23099;42.636;23.198;2023-05-14T01:02:07;92364.13;;;11.80;91.69
37206;BME280;23099;42.636;23.198;2023-05-14T01:04:34;92364.06;;;11.77;90.14
37206;BME280;23099;42.636;23.198;2023-05-14T01:07:09;92366.03;;;11.80;89.85
37206;BME280;23099;42.636;23.198;2023-05-14T01:09:41;92369.81;;;11.79;91.02
37206;BME280;23099;42.636;23.198;2023-05-14T01:12:15;92365.66;;;11.81;91.90
37206;BME280;23099;42.636;23.198;2023-05-14T01:14:49;92373.34;;;11.83;90.58
37206;BME280;23099;42.636;23.198;2023-05-14T01:17:19;92374.09;;;11.83;92.03
37206;BME280;23099;42.636;23.198;2023-05-14T01:19:47;92369.50;;;11.84;90.51
37206;BME280;23099;42.636;23.198;2023-05-14T01:22:17;92372.56;;;11.82;91.04
37206;BME280;23099;42.636;23.198;2023-05-14T01:24:44;92378.63;;;11.79;92.11
37206;BME280;23099;42.636;23.198;2023-05-14T01:27:16;92380.53;;;11.79;92.42
37206;BME280;23099;42.636;23.198;2023-05-14T01:29:50;92382.50;;;11.82;93.24
37206;BME280;23099;42.636;23.198;2023-05-14T01:32:19;92381.72;;;11.81;93.29
37206;BME280;23099;42.636;23.198;2023-05-14T01:34:49;92377.34;;;11.73;92.92
37206;BME280;23099;42.636;23.198;2023-05-14T01:37:19;92392.72;;;11.76;93.58
37206;BME280;23099;42.636;23.198;2023-05-14T01:39:46;92386.16;;;11.74;93.71
37206;BME280;23099;42.636;23.198;2023-05-14T01:42:13;92391.44;;;11.70;93.49
37206;BME280;23099;42.636;23.198;2023-05-14T01:44:40;92391.44;;;11.70;93.91
37206;BME280;23099;42.636;23.198;2023-05-14T01:47:07;92386.47;;;11.68;94.50
37206;BME280;23099;42.636;23.198;2023-05-14T01:49:34;92392.09;;;11.63;95.42
37206;BME280;23099;42.636;23.198;2023-05-14T01:52:01;92387.75;;;11.55;95.17
37206;BME280;23099;42.636;23.198;2023-05-14T01:54:29;92393.06;;;11.52;96.59
37206;BME280;23099;42.636;23.198;2023-05-14T01:56:56;92394.03;;;11.44;96.19
37206;BME280;23099;42.636;23.198;2023-05-14T01:59:22;92389.81;;;11.43;97.02
37206;BME280;23099;42.636;23.198;2023-05-14T02:01:49;92394.72;;;11.37;97.80
37206;BME280;23099;42.636;23.198;2023-05-14T02:04:16;92388.44;;;11.29;98.03
37206;BME280;23099;42.636;23.198;2023-05-14T02:06:43;92398.78;;;11.31;98.30
37206;BME280;23099;42.636;23.198;2023-05-14T02:09:10;92402.59;;;11.30;98.80
37206;BME280;23099;42.636;23.198;2023-05-14T02:11:38;92399.13;;;11.29;99.03
37206;BME280;23099;42.636;23.198;2023-05-14T02:14:04;92398.78;;;11.31;99.23
37206;BME280;23099;42.636;23.198;2023-05-14T02:16:31;92401.97;;;11.37;100.00
37206;BME280;23099;42.636;23.198;2023-05-14T02:18:58;92396.66;;;11.40;99.96
37206;BME280;23099;42.636;23.198;2023-05-14T02:21:25;92402.31;;;11.35;100.00
37206;BME280;23099;42.636;23.198;2023-05-14T02:23:52;92405.00;;;11.35;100.00
37206;BME280;23099;42.636;23.198;2023-05-14T02:26:18;92412.34;;;11.42;100.00
37206;BME280;23099;42.636;23.198;2023-05-14T02:28:47;92411.59;;;11.41;100.00
37206;BME280;23099;42.636;23.198;2023-05-14T02:31:13;92411.13;;;11.36;99.87
37206;BME280;23099;42.636;23.198;2023-05-14T02:33:41;92410.75;;;11.37;99.93
37206;BME280;23099;42.636;23.198;2023-05-14T02:36:08;92420.34;;;11.38;100.00
37206;BME280;23099;42.636;23.198;2023-05-14T02:38:35;92420.28;;;11.34;100.00
37206;BME280;23099;42.636;23.198;2023-05-14T02:41:01;92419.50;;;11.34;100.00
37206;BME280;23099;42.636;23.198;2023-05-14T02:43:28;92426.25;;;11.28;100.00
37206;BME280;23099;42.636;23.198;2023-05-14T02:45:56;92430.34;;;11.22;100.00
37206;BME280;23099;42.636;23.198;2023-05-14T02:48:23;92431.06;;;11.19;100.00
37206;BME280;23099;42.636;23.198;2023-05-14T02:50:50;92439.00;;;11.15;100.00
37206;BME280;23099;42.636;23.198;2023-05-14T02:53:17;92437.44;;;11.14;100.00
37206;BME280;23099;42.636;23.198;2023-05-14T02:55:43;92422.59;;;11.17;100.00
37206;BME280;23099;42.636;23.198;2023-05-14T02:58:10;92428.31;;;11.15;100.00
37206;BME280;23099;42.636;23.198;2023-05-14T03:00:37;92421.81;;;11.16;100.00
37206;BME280;23099;42.636;23.198;2023-05-14T03:03:05;92407.75;;;11.19;100.00
37206;BME280;23099;42.636;23.198;2023-05-14T03:05:31;92400.69;;;11.11;100.00
37206;BME280;23099;42.636;23.198;2023-05-14T03:07:59;92388.88;;;11.12;100.00
37206;BME280;23099;42.636;23.198;2023-05-14T03:10:25;92387.41;;;11.15;100.00
37206;BME280;23099;42.636;23.198;2023-05-14T03:12:52;92386.94;;;11.09;100.00
37206;BME280;23099;42.636;23.198;2023-05-14T03:15:19;92392.69;;;11.11;100.00
37206;BME280;23099;42.636;23.198;2023-05-14T03:17:45;92384.19;;;11.06;100.00
37206;BME280;23099;42.636;23.198;2023-05-14T03:20:14;92376.44;;;11.01;100.00
37206;BME280;23099;42.636;23.198;2023-05-14T03:22:41;92384.88;;;11.03;100.00
37206;BME280;23099;42.636;23.198;2023-05-14T03:25:08;92382.47;;;10.97;100.00
37206;BME280;23099;42.636;23.198;2023-05-14T03:27:35;92389.72;;;10.97;100.00
37206;BME280;23099;42.636;23.198;2023-05-14T03:30:02;92391.16;;;10.91;100.00
37206;BME280;23099;42.636;23.198;2023-05-14T03:32:28;92402.69;;;10.95;100.00
37206;BME280;23099;42.636;23.198;2023-05-14T03:34:55;92401.84;;;10.91;100.00
37206;BME280;23099;42.636;23.198;2023-05-14T03:37:24;92400.56;;;10.85;100.00
37206;BME280;23099;42.636;23.198;2023-05-14T03:39:50;92398.31;;;10.87;100.00
37206;BME280;23099;42.636;23.198;2023-05-14T03:42:17;92389.59;;;10.90;100.00
37206;BME280;23099;42.636;23.198;2023-05-14T03:44:44;92407.03;;;10.84;100.00
37206;BME280;23099;42.636;23.198;2023-05-14T03:47:10;92407.91;;;10.88;100.00
37206;BME280;23099;42.636;23.198;2023-05-14T03:49:37;92412.47;;;10.87;100.00
37206;BME280;23099;42.636;23.198;2023-05-14T03:52:04;92418.25;;;10.89;100.00
37206;BME280;23099;42.636;23.198;2023-05-14T03:54:32;92414.09;;;10.92;100.00
37206;BME280;23099;42.636;23.198;2023-05-14T03:56:59;92414.09;;;10.92;100.00
37206;BME280;23099;42.636;23.198;2023-05-14T03:59:26;92405.72;;;10.93;100.00
37206;BME280;23099;42.636;23.198;2023-05-14T04:01:53;92419.56;;;10.99;100.00
37206;BME280;23099;42.636;23.198;2023-05-14T04:04:19;92412.75;;;11.02;100.00
37206;BME280;23099;42.636;23.198;2023-05-14T04:06:46;92407.75;;;11.00;100.00
37206;BME280;23099;42.636;23.198;2023-05-14T04:09:12;92413.53;;;11.02;100.00
37206;BME280;23099;42.636;23.198;2023-05-14T04:11:41;92417.41;;;11.05;100.00
37206;BME280;23099;42.636;23.198;2023-05-14T04:14:07;92417.91;;;11.10;100.00
37206;BME280;23099;42.636;23.198;2023-05-14T04:16:34;92424.06;;;11.14;100.00
37206;BME280;23099;42.636;23.198;2023-05-14T04:19:02;92429.44;;;11.14;100.00
37206;BME280;23099;42.636;23.198;2023-05-14T04:21:29;92428.53;;;11.07;100.00
37206;BME280;23099;42.636;23.198;2023-05-14T04:23:55;92426.75;;;11.14;100.00
37206;BME280;23099;42.636;23.198;2023-05-14T04:26:22;92438.56;;;11.13;100.00
37206;BME280;23099;42.636;23.198;2023-05-14T04:28:50;92437.53;;;11.18;100.00
37206;BME280;23099;42.636;23.198;2023-05-14T04:31:17;92439.50;;;11.21;100.00
37206;BME280;23099;42.636;23.198;2023-05-14T04:33:44;92443.38;;;11.23;100.00
37206;BME280;23099;42.636;23.198;2023-05-14T04:36:10;92444.56;;;11.26;100.00
37206;BME280;23099;42.636;23.198;2023-05-14T04:38:37;92456.75;;;11.23;100.00
37206;BME280;23099;42.636;23.198;2023-05-14T04:41:04;92447.59;;;11.24;100.00
37206;BME280;23099;42.636;23.198;2023-05-14T04:43:31;92456.41;;;11.25;100.00
37206;BME280;23099;42.636;23.198;2023-05-14T04:45:59;92459.34;;;11.20;100.00
37206;BME280;23099;42.636;23.198;2023-05-14T04:48:26;92467.38;;;11.20;100.00
37206;BME280;23099;42.636;23.198;2023-05-14T04:50:52;92471.63;;;11.21;100.00
37206;BME280;23099;42.636;23.198;2023-05-14T04:53:19;92486.38;;;11.15;100.00
37206;BME280;23099;42.636;23.198;2023-05-14T04:55:46;92491.94;;;11.06;100.00
37206;BME280;23099;42.636;23.198;2023-05-14T04:58:12;92491.66;;;11.11;100.00
37206;BME280;23099;42.636;23.198;2023-05-14T05:00:39;92494.72;;;11.10;100.00
37206;BME280;23099;42.636;23.198;2023-05-14T05:03:07;92501.09;;;11.05;100.00
37206;BME280;23099;42.636;23.198;2023-05-14T05:05:34;92506.28;;;10.98;100.00
37206;BME280;23099;42.636;23.198;2023-05-14T05:08:00;92500.94;;;10.98;100.00
37206;BME280;23099;42.636;23.198;2023-05-14T05:10:27;92502.81;;;10.97;100.00
37206;BME280;23099;42.636;23.198;2023-05-14T05:12:54;92505.94;;;10.99;100.00
37206;BME280;23099;42.636;23.198;2023-05-14T05:15:20;92504.97;;;11.08;100.00
37206;BME280;23099;42.636;23.198;2023-05-14T05:17:47;92501.22;;;11.12;100.00
37206;BME280;23099;42.636;23.198;2023-05-14T05:20:15;92504.69;;;11.13;100.00
37206;BME280;23099;42.636;23.198;2023-05-14T05:22:42;92506.66;;;11.16;100.00
37206;BME280;23099;42.636;23.198;2023-05-14T05:25:09;92483.41;;;11.01;100.00
37206;BME280;23099;42.636;23.198;2023-05-14T05:27:37;92499.84;;;11.18;100.00
37206;BME280;23099;42.636;23.198;2023-05-14T05:30:04;92496.03;;;11.19;100.00
37206;BME280;23099;42.636;23.198;2023-05-14T05:32:32;92508.63;;;11.19;100.00
37206;BME280;23099;42.636;23.198;2023-05-14T05:34:58;92509.34;;;11.16;100.00
37206;BME280;23099;42.636;23.198;2023-05-14T05:37:27;92501.66;;;11.14;100.00
37206;BME280;23099;42.636;23.198;2023-05-14T05:39:53;92507.09;;;11.18;100.00
37206;BME280;23099;42.636;23.198;2023-05-14T05:42:20;92504.34;;;11.14;100.00
37206;BME280;23099;42.636;23.198;2023-05-14T05:44:47;92518.84;;;11.13;100.00
37206;BME280;23099;42.636;23.198;2023-05-14T05:47:14;92518.91;;;11.17;100.00
37206;BME280;23099;42.636;23.198;2023-05-14T05:49:41;92523.75;;;11.11;100.00
37206;BME280;23099;42.636;23.198;2023-05-14T05:52:08;92518.78;;;11.10;100.00
37206;BME280;23099;42.636;23.198;2023-05-14T05:54:36;92515.16;;;11.02;100.00
37206;BME280;23099;42.636;23.198;2023-05-14T05:57:04;92508.59;;;10.99;100.00
37206;BME280;23099;42.636;23.198;2023-05-14T05:59:31;92500.78;;;10.91;100.00
37206;BME280;23099;42.636;23.198;2023-05-14T06:01:57;92501.56;;;10.91;100.00
37206;BME280;23099;42.636;23.198;2023-05-14T06:04:24;92505.03;;;10.92;100.00
37206;BME280;23099;42.636;23.198;2023-05-14T06:06:51;92509.69;;;10.95;100.00
37206;BME280;23099;42.636;23.198;2023-05-14T06:09:17;92513.38;;;10.90;100.00
37206;BME280;23099;42.636;23.198;2023-05-14T06:11:45;92508.31;;;10.85;100.00
37206;BME280;23099;42.636;23.198;2023-05-14T06:14:12;92499.94;;;10.87;100.00
37206;BME280;23099;42.636;23.198;2023-05-14T06:16:39;92486.56;;;10.87;100.00
37206;BME280;23099;42.636;23.198;2023-05-14T06:19:05;92481.84;;;10.80;100.00
37206;BME280;23099;42.636;23.198;2023-05-14T06:21:32;92458.34;;;10.54;100.00
37206;BME280;23099;42.636;23.198;2023-05-14T06:23:59;92486.88;;;10.66;100.00
37206;BME280;23099;42.636;23.198;2023-05-14T06:26:26;92487.50;;;10.59;100.00
37206;BME280;23099;42.636;23.198;2023-05-14T06:28:54;92498.28;;;10.47;100.00
37206;BME280;23099;42.636;23.198;2023-05-14T06:31:20;92500.44;;;10.42;100.00
37206;BME280;23099;42.636;23.198;2023-05-14T06:33:47;92503.31;;;10.33;100.00
37206;BME280;23099;42.636;23.198;2023-05-14T06:36:14;92490.88;;;10.25;100.00
37206;BME280;23099;42.636;23.198;2023-05-14T06:38:40;92491.03;;;10.16;100.00
37206;BME280;23099;42.636;23.198;2023-05-14T06:41:07;92499.28;;;10.23;100.00
37206;BME280;23099;42.636;23.198;2023-05-14T06:43:34;92500.53;;;10.30;100.00
37206;BME280;23099;42.636;23.198;2023-05-14T06:46:02;92482.72;;;10.34;100.00
37206;BME280;23099;42.636;23.198;2023-05-14T06:48:29;92480.28;;;10.13;100.00
37206;BME280;23099;42.636;23.198;2023-05-14T06:50:56;92482.94;;;10.13;100.00
37206;BME280;23099;42.636;23.198;2023-05-14T06:53:22;92472.97;;;10.10;100.00
37206;BME280;23099;42.636;23.198;2023-05-14T06:55:49;92466.13;;;10.12;100.00
37206;BME280;23099;42.636;23.198;2023-05-14T06:58:16;92463.34;;;10.21;100.00
37206;BME280;23099;42.636;23.198;2023-05-14T07:00:42;92464.13;;;10.21;100.00
37206;BME280;23099;42.636;23.198;2023-05-14T07:03:10;92462.28;;;10.10;100.00
37206;BME280;23099;42.636;23.198;2023-05-14T07:05:37;92468.81;;;10.12;100.00
37206;BME280;23099;42.636;23.198;2023-05-14T07:08:05;92466.13;;;10.12;100.00
37206;BME280;23099;42.636;23.198;2023-05-14T07:10:32;92472.25;;;10.13;100.00
37206;BME280;23099;42.636;23.198;2023-05-14T07:12:58;92493.19;;;10.11;100.00
37206;BME280;23099;42.636;23.198;2023-05-14T07:15:25;92511.28;;;10.02;100.00
37206;BME280;23099;42.636;23.198;2023-05-14T07:17:52;92519.63;;;10.00;100.00
37206;BME280;23099;42.636;23.198;2023-05-14T07:20:20;92512.16;;;9.90;100.00
37206;BME280;23099;42.636;23.198;2023-05-14T07:22:48;92509.22;;;9.95;100.00
37206;BME280;23099;42.636;23.198;2023-05-14T07:25:14;92518.69;;;9.92;100.00
37206;BME280;23099;42.636;23.198;2023-05-14T07:27:42;92522.47;;;9.91;100.00
37206;BME280;23099;42.636;23.198;2023-05-14T07:30:09;92517.81;;;9.88;100.00
37206;BME280;23099;42.636;23.198;2023-05-14T07:32:36;92509.56;;;9.93;100.00
37206;BME280;23099;42.636;23.198;2023-05-14T07:35:03;92510.75;;;9.96;100.00
37206;BME280;23099;42.636;23.198;2023-05-14T07:37:31;92505.16;;;10.01;100.00
37206;BME280;23099;42.636;23.198;2023-05-14T07:39:58;92512.84;;;10.03;100.00
37206;BME280;23099;42.636;23.198;2023-05-14T07:42:25;92522.06;;;10.05;100.00
37206;BME280;23099;42.636;23.198;2023-05-14T07:44:52;92522.84;;;10.06;100.00
37206;BME280;23099;42.636;23.198;2023-05-14T07:47:19;92526.88;;;10.00;100.00
37206;BME280;23099;42.636;23.198;2023-05-14T07:49:45;92519.28;;;9.86;100.00
37206;BME280;23099;42.636;23.198;2023-05-14T07:52:12;92527.72;;;9.88;100.00
37206;BME280;23099;42.636;23.198;2023-05-14T07:54:40;92528.94;;;9.90;100.00
37206;BME280;23099;42.636;23.198;2023-05-14T07:57:07;92526.50;;;9.85;100.00
37206;BME280;23099;42.636;23.198;2023-05-14T07:59:34;92533.16;;;9.91;100.00
37206;BME280;23099;42.636;23.198;2023-05-14T08:02:00;92525.41;;;10.02;100.00
37206;BME280;23099;42.636;23.198;2023-05-14T08:04:27;92516.97;;;10.00;100.00
37206;BME280;23099;42.636;23.198;2023-05-14T08:06:54;92505.50;;;10.00;100.00
37206;BME280;23099;42.636;23.198;2023-05-14T08:09:22;92494.81;;;10.00;100.00
37206;BME280;23099;42.636;23.198;2023-05-14T08:11:50;92490.78;;;9.90;100.00
37206;BME280;23099;42.636;23.198;2023-05-14T08:14:17;92493.00;;;9.88;100.00
37206;BME280;23099;42.636;23.198;2023-05-14T08:16:43;92495.00;;;9.91;100.00
37206;BME280;23099;42.636;23.198;2023-05-14T08:19:11;92492.84;;;9.97;100.00
37206;BME280;23099;42.636;23.198;2023-05-14T08:21:38;92490.34;;;9.88;100.00
37206;BME280;23099;42.636;23.198;2023-05-14T08:24:05;92483.56;;;9.90;100.00
37206;BME280;23099;42.636;23.198;2023-05-14T08:26:31;92489.41;;;9.80;100.00
37206;BME280;23099;42.636;23.198;2023-05-14T08:29:00;92485.66;;;9.69;100.00
37206;BME280;23099;42.636;23.198;2023-05-14T08:31:26;92490.09;;;9.77;100.00
37206;BME280;23099;42.636;23.198;2023-05-14T08:33:53;92491.28;;;9.80;100.00
37206;BME280;23099;42.636;23.198;2023-05-14T08:36:20;92478.63;;;9.77;100.00
37206;BME280;23099;42.636;23.198;2023-05-14T08:38:46;92478.72;;;9.80;100.00
37206;BME280;23099;42.636;23.198;2023-05-14T08:41:14;92474.31;;;9.88;100.00
37206;BME280;23099;42.636;23.198;2023-05-14T08:43:44;92475.34;;;9.83;100.00
37206;BME280;23099;42.636;23.198;2023-05-14T08:46:20;92482.06;;;9.77;100.00
37206;BME280;23099;42.636;23.198;2023-05-14T08:48:55;92481.75;;;9.79;100.00
37206;BME280;23099;42.636;23.198;2023-05-14T08:51:22;92486.53;;;9.73;100.00
37206;BME280;23099;42.636;23.198;2023-05-14T08:53:49;92492.31;;;9.75;100.00
37206;BME280;23099;42.636;23.198;2023-05-14T08:56:17;92481.75;;;9.79;100.00
37206;BME280;23099;42.636;23.198;2023-05-14T08:58:44;92478.97;;;9.75;100.00
37206;BME280;23099;42.636;23.198;2023-05-14T09:01:11;92485.00;;;9.88;100.00
37206;BME280;23099;42.636;23.198;2023-05-14T09:03:39;92482.25;;;9.84;100.00
37206;BME280;23099;42.636;23.198;2023-05-14T09:06:06;92474.66;;;9.86;100.00
37206;BME280;23099;42.636;23.198;2023-05-14T09:08:33;92471.66;;;10.04;100.00
37206;BME280;23099;42.636;23.198;2023-05-14T09:11:01;92461.66;;;10.01;100.00
37206;BME280;23099;42.636;23.198;2023-05-14T09:13:27;92469.09;;;10.07;100.00
37206;BME280;23099;42.636;23.198;2023-05-14T09:15:56;92470.13;;;10.18;100.00
37206;BME280;23099;42.636;23.198;2023-05-14T09:18:23;92480.56;;;10.23;100.00
37206;BME280;23099;42.636;23.198;2023-05-14T09:20:51;92486.16;;;10.18;100.00
37206;BME280;23099;42.636;23.198;2023-05-14T09:23:18;92476.25;;;10.19;100.00
37206;BME280;23099;42.636;23.198;2023-05-14T09:25:46;92470.56;;;10.20;100.00
37206;BME280;23099;42.636;23.198;2023-05-14T09:28:16;92472.97;;;10.10;100.00
37206;BME280;23099;42.636;23.198;2023-05-14T09:30:46;92473.59;;;10.19;100.00
37206;BME280;23099;42.636;23.198;2023-05-14T09:33:24;92476.34;;;10.22;100.00
37206;BME280;23099;42.636;23.198;2023-05-14T09:35:57;92475.78;;;10.17;100.00
37206;BME280;23099;42.636;23.198;2023-05-14T09:38:27;92463.56;;;10.16;100.00
37206;BME280;23099;42.636;23.198;2023-05-14T09:40:54;92462.56;;;10.20;100.00
37206;BME280;23099;42.636;23.198;2023-05-14T09:43:21;92453.00;;;10.19;100.00
37206;BME280;23099;42.636;23.198;2023-05-14T09:45:48;92450.81;;;10.25;100.00
37206;BME280;23099;42.636;23.198;2023-05-14T09:48:14;92448.78;;;10.18;100.00
37206;BME280;23099;42.636;23.198;2023-05-14T09:50:42;92451.59;;;10.25;100.00
37206;BME280;23099;42.636;23.198;2023-05-14T09:53:10;92444.09;;;10.31;100.00
37206;BME280;23099;42.636;23.198;2023-05-14T09:55:37;92442.19;;;10.32;100.00
37206;BME280;23099;42.636;23.198;2023-05-14T09:58:04;92443.22;;;10.27;100.00
37206;BME280;23099;42.636;23.198;2023-05-14T10:00:32;92441.28;;;10.24;100.00
37206;BME280;23099;42.636;23.198;2023-05-14T10:03:03;92429.53;;;10.28;100.00
37206;BME280;23099;42.636;23.198;2023-05-14T10:05:32;92428.25;;;10.22;100.00
37206;BME280;23099;42.636;23.198;2023-05-14T10:08:02;92433.94;;;10.21;100.00
37206;BME280;23099;42.636;23.198;2023-05-14T10:10:31;92426.41;;;10.11;100.00
37206;BME280;23099;42.636;23.198;2023-05-14T10:13:02;92415.59;;;10.04;100.00
37206;BME280;23099;42.636;23.198;2023-05-14T10:15:33;92398.78;;;10.03;100.00
37206;BME280;23099;42.636;23.198;2023-05-14T10:18:07;92407.91;;;10.02;100.00
37206;BME280;23099;42.636;23.198;2023-05-14T10:20:37;92415.84;;;9.99;100.00
37206;BME280;23099;42.636;23.198;2023-05-14T10:23:05;92417.66;;;9.95;100.00
37206;BME280;23099;42.636;23.198;2023-05-14T10:25:34;92442.72;;;9.90;100.00
37206;BME280;23099;42.636;23.198;2023-05-14T10:28:02;92431.69;;;9.91;100.00
37206;BME280;23099;42.636;23.198;2023-05-14T10:30:30;92410.59;;;9.86;100.00
37206;BME280;23099;42.636;23.198;2023-05-14T10:33:07;92437.28;;;9.86;100.00
37206;BME280;23099;42.636;23.198;2023-05-14T10:35:50;92430.50;;;9.89;100.00
37206;BME280;23099;42.636;23.198;2023-05-14T10:38:21;92420.75;;;9.97;100.00
37206;BME280;23099;42.636;23.198;2023-05-14T10:40:49;92417.03;;;10.01;100.00
37206;BME280;23099;42.636;23.198;2023-05-14T10:43:16;92427.56;;;9.94;100.00
37206;BME280;23099;42.636;23.198;2023-05-14T10:45:43;92433.06;;;9.85;100.00
37206;BME280;23099;42.636;23.198;2023-05-14T10:48:11;92428.75;;;9.97;100.00
37206;BME280;23099;42.636;23.198;2023-05-14T10:50:37;92416.03;;;10.06;100.00
37206;BME280;23099;42.636;23.198;2023-05-14T10:53:04;92420.38;;;10.14;100.00
37206;BME280;23099;42.636;23.198;2023-05-14T10:55:31;92411.13;;;10.23;100.00
37206;BME280;23099;42.636;23.198;2023-05-14T10:58:03;92405.06;;;10.26;100.00
37206;BME280;23099;42.636;23.198;2023-05-14T11:00:32;92413.72;;;10.39;100.00
37206;BME280;23099;42.636;23.198;2023-05-14T11:02:59;92406.66;;;10.47;100.00
37206;BME280;23099;42.636;23.198;2023-05-14T11:05:25;92411.66;;;10.48;100.00
37206;BME280;23099;42.636;23.198;2023-05-14T11:07:55;92413.28;;;10.53;100.00
37206;BME280;23099;42.636;23.198;2023-05-14T11:10:23;92415.59;;;10.54;100.00
37206;BME280;23099;42.636;23.198;2023-05-14T11:12:52;92405.34;;;10.56;100.00
37206;BME280;23099;42.636;23.198;2023-05-14T11:15:22;92411.91;;;10.43;100.00
37206;BME280;23099;42.636;23.198;2023-05-14T11:17:49;92419.50;;;10.41;100.00
37206;BME280;23099;42.636;23.198;2023-05-14T11:20:17;92427.03;;;10.36;100.00
37206;BME280;23099;42.636;23.198;2023-05-14T11:22:45;92419.44;;;10.38;100.00
37206;BME280;23099;42.636;23.198;2023-05-14T11:25:13;92420.22;;;10.38;100.00
37206;BME280;23099;42.636;23.198;2023-05-14T11:27:41;92421.69;;;10.36;100.00
37206;BME280;23099;42.636;23.198;2023-05-14T11:30:11;92409.63;;;10.26;100.00
37206;BME280;23099;42.636;23.198;2023-05-14T11:32:39;92431.88;;;10.30;100.00
37206;BME280;23099;42.636;23.198;2023-05-14T11:35:07;92413.94;;;10.31;100.00
37206;BME280;23099;42.636;23.198;2023-05-14T11:37:33;92409.44;;;10.35;100.00
37206;BME280;23099;42.636;23.198;2023-05-14T11:40:00;92407.13;;;10.33;100.00
37206;BME280;23099;42.636;23.198;2023-05-14T11:42:27;92393.41;;;10.35;100.00
37206;BME280;23099;42.636;23.198;2023-05-14T11:44:54;92388.22;;;10.42;100.00
37206;BME280;23099;42.636;23.198;2023-05-14T11:47:21;92402.88;;;10.48;100.00
37206;BME280;23099;42.636;23.198;2023-05-14T11:49:49;92397.41;;;10.60;100.00
37206;BME280;23099;42.636;23.198;2023-05-14T11:52:16;92396.78;;;10.67;100.00
37206;BME280;23099;42.636;23.198;2023-05-14T11:54:46;92392.47;;;10.62;100.00
37206;BME280;23099;42.636;23.198;2023-05-14T11:57:15;92387.25;;;10.69;100.00
37206;BME280;23099;42.636;23.198;2023-05-14T11:59:43;92377.06;;;10.75;100.00
37206;BME280;23099;42.636;23.198;2023-05-14T12:02:11;92382.00;;;10.73;100.00
37206;BME280;23099;42.636;23.198;2023-05-14T12:04:38;92372.50;;;10.75;100.00
37206;BME280;23099;42.636;23.198;2023-05-14T12:07:11;92374.91;;;10.80;100.00
37206;BME280;23099;42.636;23.198;2023-05-14T12:09:40;92365.25;;;10.76;100.00
37206;BME280;23099;42.636;23.198;2023-05-14T12:12:08;92362.72;;;10.83;100.00
37206;BME280;23099;42.636;23.198;2023-05-14T12:14:36;92347.53;;;10.87;100.00
37206;BME280;23099;42.636;23.198;2023-05-14T12:17:03;92353.22;;;10.85;100.00
37206;BME280;23099;42.636;23.198;2023-05-14T12:19:38;92335.69;;;10.88;100.00
37206;BME280;23099;42.636;23.198;2023-05-14T12:22:07;92338.78;;;10.71;100.00
37206;BME280;23099;42.636;23.198;2023-05-14T12:24:35;92337.81;;;10.79;100.00
37206;BME280;23099;42.636;23.198;2023-05-14T12:27:04;92333.88;;;10.73;100.00
37206;BME280;23099;42.636;23.198;2023-05-14T12:29:34;92309.63;;;10.62;100.00
37206;BME280;23099;42.636;23.198;2023-05-14T12:32:06;92330.56;;;10.60;100.00
37206;BME280;23099;42.636;23.198;2023-05-14T12:34:33;92340.66;;;10.67;100.00
37206;BME280;23099;42.636;23.198;2023-05-14T12:37:00;92325.84;;;10.53;100.00
37206;BME280;23099;42.636;23.198;2023-05-14T12:39:27;92332.41;;;10.56;100.00
37206;BME280;23099;42.636;23.198;2023-05-14T12:41:55;92323.25;;;10.57;100.00
37206;BME280;23099;42.636;23.198;2023-05-14T12:44:21;92327.06;;;10.56;100.00